createdAt,value
2019-02-24T00:02:08.519Z,26.73
2019-02-24T00:04:37.605Z,22.23
2019-02-24T00:07:06.702Z,22.23
2019-02-24T00:09:35.797Z,22.73
2019-02-24T00:12:04.949Z,23.17
2019-02-24T00:14:34.111Z,23.57
2019-02-24T00:17:03.264Z,21.27
2019-02-24T00:19:32.185Z,21.70
2019-02-24T00:22:01.293Z,25.17
2019-02-24T00:24:30.463Z,21.47
2019-02-24T00:26:59.545Z,22.90
2019-02-24T00:29:28.628Z,24.70
2019-02-24T00:31:57.742Z,24.90
2019-02-24T00:34:26.844Z,26.70
2019-02-24T00:36:55.957Z,23.70
2019-02-24T00:39:25.034Z,23.70
2019-02-24T00:41:54.165Z,20.57
2019-02-24T00:44:23.175Z,23.70
2019-02-24T00:46:52.290Z,22.97
2019-02-24T00:49:21.285Z,21.60
2019-02-24T00:51:50.532Z,21.97
2019-02-24T00:54:19.624Z,20.20
2019-02-24T00:56:48.697Z,22.27
2019-02-24T00:59:17.869Z,23.03
2019-02-24T01:01:47.005Z,25.10
2019-02-24T01:04:16.479Z,22.63
2019-02-24T01:06:45.670Z,19.67
2019-02-24T01:09:14.773Z,20.67
2019-02-24T01:11:43.895Z,19.57
2019-02-24T01:14:12.996Z,23.17
2019-02-24T01:16:42.081Z,22.17
2019-02-24T01:19:11.184Z,23.50
2019-02-24T01:21:40.225Z,20.37
2019-02-24T01:24:09.248Z,19.80
2019-02-24T01:26:38.329Z,20.30
2019-02-24T01:29:07.348Z,19.23
2019-02-24T01:31:36.429Z,21.70
2019-02-24T01:34:05.535Z,19.77
2019-02-24T01:36:34.590Z,20.83
2019-02-24T01:39:04.148Z,18.33
2019-02-24T01:41:33.418Z,21.33
2019-02-24T01:44:02.642Z,19.57
2019-02-24T01:46:31.630Z,21.23
2019-02-24T01:49:00.731Z,19.33
2019-02-24T01:51:29.903Z,21.30
2019-02-24T01:53:59.012Z,21.10
2019-02-24T01:56:29.065Z,24.27
2019-02-24T01:58:58.078Z,23.23
2019-02-24T02:01:27.215Z,24.03
2019-02-24T02:03:56.186Z,20.30
2019-02-24T02:06:25.288Z,25.50
2019-02-24T02:08:54.375Z,21.27
2019-02-24T02:11:23.508Z,24.03
2019-02-24T02:13:52.595Z,21.33
2019-02-24T02:16:21.663Z,19.10
2019-02-24T02:18:50.753Z,21.97
2019-02-24T02:21:19.815Z,17.90
2019-02-24T02:23:48.930Z,20.87
2019-02-24T02:26:17.940Z,19.80
2019-02-24T02:28:47.017Z,18.37
2019-02-24T02:31:16.180Z,19.70
2019-02-24T02:33:45.317Z,20.20
2019-02-24T02:36:14.434Z,18.03
2019-02-24T02:38:43.567Z,18.93
2019-02-24T02:41:12.854Z,20.17
2019-02-24T02:43:42.050Z,18.53
2019-02-24T02:46:11.150Z,16.00
2019-02-24T02:48:40.633Z,15.77
2019-02-24T02:51:10.197Z,16.27
2019-02-24T02:53:39.355Z,16.43
2019-02-24T02:56:08.393Z,16.90
2019-02-24T02:58:37.546Z,14.73
2019-02-24T03:01:06.659Z,16.67
2019-02-24T03:03:35.797Z,16.47
2019-02-24T03:06:16.305Z,17.20
2019-02-24T03:08:46.423Z,17.40
2019-02-24T03:11:16.206Z,15.63
2019-02-24T03:13:45.349Z,15.83
2019-02-24T03:16:16.162Z,13.93
2019-02-24T03:18:45.268Z,16.53
2019-02-24T03:21:14.377Z,16.07
2019-02-24T03:23:43.522Z,14.50
2019-02-24T03:26:12.625Z,14.03
2019-02-24T03:28:41.755Z,15.77
2019-02-24T03:31:10.868Z,14.10
2019-02-24T03:33:40.042Z,12.83
2019-02-24T03:36:09.199Z,13.50
2019-02-24T03:38:38.416Z,15.23
2019-02-24T03:41:07.523Z,12.73
2019-02-24T03:43:36.680Z,16.07
2019-02-24T03:46:05.794Z,13.30
2019-02-24T03:48:34.924Z,14.40
2019-02-24T03:51:04.057Z,15.47
2019-02-24T03:53:33.387Z,15.10
2019-02-24T03:56:02.497Z,14.63
2019-02-24T03:58:31.662Z,14.27
2019-02-24T04:01:00.771Z,13.10
2019-02-24T04:03:29.992Z,11.47
2019-02-24T04:05:59.149Z,12.53
2019-02-24T04:08:28.275Z,12.17
2019-02-24T04:10:57.522Z,14.37
2019-02-24T04:13:26.620Z,16.13
2019-02-24T04:15:55.780Z,13.60
2019-02-24T04:18:24.908Z,15.57
2019-02-24T04:20:54.045Z,14.47
2019-02-24T04:23:23.391Z,12.63
2019-02-24T04:25:53.689Z,13.47
2019-02-24T04:28:23.326Z,15.97
2019-02-24T04:30:55.934Z,13.30
2019-02-24T04:33:25.062Z,13.70
2019-02-24T04:35:54.219Z,13.37
2019-02-24T04:38:23.576Z,13.50
2019-02-24T04:40:52.814Z,12.03
2019-02-24T04:43:21.981Z,12.17
2019-02-24T04:45:51.130Z,13.17
2019-02-24T04:48:20.235Z,13.33
2019-02-24T04:50:49.372Z,12.30
2019-02-24T04:53:18.598Z,14.97
2019-02-24T04:55:47.748Z,15.93
2019-02-24T04:58:16.868Z,12.30
2019-02-24T05:00:46.061Z,9.10
2019-02-24T05:03:15.124Z,10.07
2019-02-24T05:05:44.266Z,12.00
2019-02-24T05:08:13.372Z,12.60
2019-02-24T05:10:42.524Z,9.97
2019-02-24T05:13:11.643Z,10.43
2019-02-24T05:15:40.801Z,8.17
2019-02-24T05:18:09.895Z,10.23
2019-02-24T05:20:39.036Z,9.90
2019-02-24T05:23:08.186Z,9.23
2019-02-24T05:25:37.328Z,9.67
2019-02-24T05:28:06.510Z,9.97
2019-02-24T05:30:35.663Z,10.20
2019-02-24T05:33:04.873Z,10.60
2019-02-24T05:35:33.997Z,11.70
2019-02-24T05:38:03.125Z,13.20
2019-02-24T05:40:32.163Z,12.87
2019-02-24T05:43:01.310Z,18.03
2019-02-24T05:45:30.565Z,17.53
2019-02-24T05:47:59.711Z,13.97
2019-02-24T05:50:28.858Z,13.60
2019-02-24T05:52:57.968Z,11.33
2019-02-24T05:55:27.165Z,9.10
2019-02-24T05:57:56.259Z,9.93
2019-02-24T06:00:25.405Z,12.97
2019-02-24T06:02:54.679Z,13.43
2019-02-24T06:05:23.847Z,12.23
2019-02-24T06:07:52.985Z,11.10
2019-02-24T06:10:22.219Z,12.40
2019-02-24T06:12:51.395Z,15.67
2019-02-24T06:15:20.594Z,16.63
2019-02-24T06:17:49.734Z,12.17
2019-02-24T06:20:19.384Z,8.87
2019-02-24T06:22:49.156Z,7.97
2019-02-24T06:25:18.561Z,12.50
2019-02-24T06:27:47.627Z,8.20
2019-02-24T06:30:16.827Z,10.93
2019-02-24T06:32:46.022Z,10.20
2019-02-24T06:35:15.196Z,8.90
2019-02-24T06:37:44.404Z,9.87
2019-02-24T06:40:13.624Z,9.37
2019-02-24T06:42:42.839Z,8.77
2019-02-24T06:45:12.292Z,10.33
2019-02-24T06:47:41.599Z,20.77
2019-02-24T06:50:11.857Z,21.90
2019-02-24T06:52:41.016Z,19.63
2019-02-24T06:55:11.434Z,17.80
2019-02-24T06:57:40.815Z,21.37
2019-02-24T07:00:14.214Z,15.17
2019-02-24T07:02:42.450Z,16.37
2019-02-24T07:05:11.647Z,12.80
2019-02-24T07:07:40.775Z,13.77
2019-02-24T07:10:10.031Z,14.13
2019-02-24T07:12:39.257Z,53.03
2019-02-24T07:15:09.380Z,33.57
2019-02-24T07:17:39.518Z,27.20
2019-02-24T07:20:09.111Z,28.60
2019-02-24T07:22:38.541Z,27.90
2019-02-24T07:25:08.301Z,30.77
2019-02-24T07:27:37.837Z,33.70
2019-02-24T07:30:08.178Z,41.90
2019-02-24T07:32:37.426Z,42.90
2019-02-24T07:35:06.746Z,60.73
2019-02-24T07:37:36.023Z,81.60
2019-02-24T07:40:06.033Z,84.13
2019-02-24T07:42:35.292Z,78.43
2019-02-24T07:45:04.571Z,61.40
2019-02-24T07:47:33.894Z,52.80
2019-02-24T07:50:03.032Z,58.37
2019-02-24T07:52:32.328Z,49.20
2019-02-24T07:55:01.733Z,44.20
2019-02-24T07:57:30.934Z,36.40
2019-02-24T08:00:00.057Z,41.93
2019-02-24T08:02:29.417Z,46.03
2019-02-24T08:04:58.903Z,42.87
2019-02-24T08:07:28.064Z,35.93
2019-02-24T08:09:57.197Z,30.83
2019-02-24T08:12:26.471Z,31.33
2019-02-24T08:14:55.577Z,19.90
2019-02-24T08:17:26.474Z,22.13
2019-02-24T08:19:55.583Z,16.13
2019-02-24T08:22:25.103Z,16.33
2019-02-24T08:24:54.208Z,10.47
2019-02-24T08:27:23.336Z,9.40
2019-02-24T08:29:52.458Z,16.13
2019-02-24T08:32:21.787Z,15.67
2019-02-24T08:34:52.912Z,16.30
2019-02-24T08:37:21.746Z,14.23
2019-02-24T08:39:50.886Z,15.10
2019-02-24T08:42:20.175Z,14.03
2019-02-24T08:44:49.274Z,8.77
2019-02-24T08:47:18.378Z,9.53
2019-02-24T08:49:48.193Z,9.47
2019-02-24T08:52:17.292Z,10.60
2019-02-24T08:54:46.348Z,8.13
2019-02-24T08:57:15.555Z,8.43
2019-02-24T08:59:44.744Z,8.27
2019-02-24T09:02:33.866Z,9.10
2019-02-24T09:04:52.530Z,7.60
2019-02-24T09:07:22.076Z,8.33
2019-02-24T09:09:51.207Z,7.80
2019-02-24T09:12:20.411Z,7.60
2019-02-24T09:14:49.496Z,6.67
2019-02-24T09:17:18.611Z,7.47
2019-02-24T09:19:47.771Z,7.47
2019-02-24T09:22:16.892Z,9.57
2019-02-24T09:24:46.190Z,9.30
2019-02-24T09:27:15.394Z,17.57
2019-02-24T09:29:44.635Z,9.77
2019-02-24T09:32:13.889Z,9.47
2019-02-24T09:34:43.115Z,7.50
2019-02-24T09:37:12.217Z,7.33
2019-02-24T09:39:41.297Z,8.20
2019-02-24T09:42:10.408Z,8.27
2019-02-24T09:44:39.550Z,8.70
2019-02-24T09:47:08.839Z,8.07
2019-02-24T09:49:37.997Z,8.80
2019-02-24T09:52:07.203Z,21.67
2019-02-24T09:54:36.349Z,15.10
2019-02-24T09:57:05.530Z,19.77
2019-02-24T09:59:34.697Z,11.43
2019-02-24T10:02:03.891Z,13.77
2019-02-24T10:04:33.143Z,14.27
2019-02-24T10:07:02.316Z,9.87
2019-02-24T10:09:34.961Z,9.73
2019-02-24T10:12:09.745Z,8.67
2019-02-24T10:14:42.130Z,8.60
2019-02-24T10:17:28.541Z,8.33
2019-02-24T10:20:02.928Z,7.13
2019-02-24T10:22:33.483Z,7.03
2019-02-24T10:25:02.518Z,7.33
2019-02-24T10:27:31.736Z,5.47
2019-02-24T10:30:01.075Z,6.43
2019-02-24T10:32:30.638Z,6.47
2019-02-24T10:34:59.767Z,7.90
2019-02-24T10:37:36.278Z,7.80
2019-02-24T10:40:07.256Z,6.33
2019-02-24T10:42:42.304Z,7.93
2019-02-24T10:45:12.451Z,5.57
2019-02-24T10:47:44.007Z,6.07
2019-02-24T10:50:15.970Z,7.50
2019-02-24T10:52:45.568Z,6.87
2019-02-24T10:55:15.014Z,7.00
2019-02-24T10:57:48.728Z,6.67
2019-02-24T11:00:20.130Z,5.70
2019-02-24T11:02:51.502Z,6.20
2019-02-24T11:05:20.715Z,7.23
2019-02-24T11:07:49.796Z,7.67
2019-02-24T11:10:19.282Z,6.23
2019-02-24T11:12:48.373Z,6.27
2019-02-24T11:15:19.836Z,8.17
2019-02-24T11:17:49.049Z,6.37
2019-02-24T11:20:18.208Z,6.60
2019-02-24T11:22:49.687Z,6.90
2019-02-24T11:25:18.756Z,6.40
2019-02-24T11:27:48.026Z,6.63
2019-02-24T11:30:17.328Z,7.27
2019-02-24T11:32:48.944Z,8.30
2019-02-24T11:35:27.008Z,8.07
2019-02-24T11:37:57.416Z,7.80
2019-02-24T11:40:29.873Z,8.00
2019-02-24T11:43:01.219Z,9.27
2019-02-24T11:45:30.334Z,8.03
2019-02-24T11:47:59.550Z,8.53
2019-02-24T11:50:31.517Z,9.60
2019-02-24T11:53:00.677Z,9.00
2019-02-24T11:55:34.300Z,8.30
2019-02-24T11:58:03.138Z,8.83
2019-02-24T12:00:37.647Z,9.10
2019-02-24T12:03:12.444Z,8.70
2019-02-24T12:05:46.474Z,8.67
2019-02-24T12:08:19.498Z,9.63
2019-02-24T12:10:57.675Z,8.37
2019-02-24T12:13:28.378Z,8.90
2019-02-24T12:16:04.331Z,7.83
2019-02-24T12:18:38.319Z,7.97
2019-02-24T12:21:11.000Z,7.67
2019-02-24T12:23:48.099Z,8.50
2019-02-24T12:26:19.848Z,8.00
2019-02-24T12:28:55.050Z,8.40
2019-02-24T12:31:58.023Z,8.13
2019-02-24T12:34:30.723Z,8.50
2019-02-24T12:37:07.360Z,7.03
2019-02-24T12:39:39.660Z,7.50
2019-02-24T12:42:22.238Z,8.33
2019-02-24T12:45:03.315Z,7.67
2019-02-24T12:51:26.639Z,8.13
2019-02-24T12:54:06.507Z,8.00
2019-02-24T12:56:46.726Z,7.87
2019-02-24T12:59:19.839Z,6.87
2019-02-24T13:01:49.910Z,8.53
2019-02-24T13:04:28.908Z,7.90
2019-02-24T13:07:04.389Z,7.10
2019-02-24T13:09:37.004Z,7.10
2019-02-24T13:12:15.459Z,7.67
2019-02-24T13:14:47.683Z,9.53
2019-02-24T13:17:23.452Z,9.80
2019-02-24T13:19:56.663Z,7.83
2019-02-24T13:22:35.835Z,7.57
2019-02-24T13:25:06.480Z,7.07
2019-02-24T13:27:35.587Z,8.00
2019-02-24T13:30:11.355Z,7.10
2019-02-24T13:32:40.599Z,6.73
2019-02-24T13:35:09.779Z,6.73
2019-02-24T13:37:38.867Z,11.25
2019-02-24T13:40:08.601Z,7.27
2019-02-24T13:42:37.620Z,7.20
2019-02-24T13:45:09.141Z,6.20
2019-02-24T13:47:38.242Z,7.30
2019-02-24T13:50:07.333Z,7.63
2019-02-24T13:52:36.551Z,5.93
2019-02-24T13:55:07.590Z,6.13
2019-02-24T13:57:36.658Z,6.60
2019-02-24T14:00:06.998Z,6.50
2019-02-24T14:02:37.181Z,6.10
2019-02-24T14:05:06.939Z,7.20
2019-02-24T14:07:37.866Z,6.50
2019-02-24T14:10:08.748Z,6.67
2019-02-24T14:12:38.096Z,7.13
2019-02-24T14:15:07.607Z,6.40
2019-02-24T14:17:36.610Z,6.73
2019-02-24T14:20:06.208Z,6.37
2019-02-24T14:22:36.628Z,6.97
2019-02-24T14:25:06.386Z,6.40
2019-02-24T14:27:36.072Z,6.80
2019-02-24T14:30:07.736Z,7.10
2019-02-24T14:32:37.911Z,6.10
2019-02-24T14:35:15.216Z,6.47
2019-02-24T14:37:47.650Z,8.03
2019-02-24T14:40:16.709Z,15.80
2019-02-24T14:42:45.907Z,18.20
2019-02-24T14:45:15.973Z,20.97
2019-02-24T14:47:47.297Z,13.17
2019-02-24T14:50:17.439Z,20.20
2019-02-24T14:52:50.238Z,11.20
2019-02-24T14:55:21.526Z,10.70
2019-02-24T14:57:50.785Z,9.67
2019-02-24T15:00:21.172Z,9.43
2019-02-24T15:02:58.151Z,7.97
2019-02-24T15:05:28.393Z,8.23
2019-02-24T15:07:58.145Z,8.20
2019-02-24T15:10:29.294Z,7.77
2019-02-24T15:12:58.282Z,9.60
2019-02-24T15:15:33.093Z,10.53
2019-02-24T15:17:58.650Z,7.97
2019-02-24T15:20:27.795Z,8.40
2019-02-24T15:22:56.911Z,8.73
2019-02-24T15:25:26.023Z,7.73
2019-02-24T15:27:55.361Z,7.43
2019-02-24T15:30:29.759Z,7.57
2019-02-24T15:33:09.072Z,8.20
2019-02-24T15:35:39.846Z,7.87
2019-02-24T15:38:13.789Z,6.40
2019-02-24T15:40:42.995Z,7.47
2019-02-24T15:43:12.284Z,7.07
2019-02-24T15:45:43.925Z,6.37
2019-02-24T15:48:14.783Z,8.17
2019-02-24T15:50:46.955Z,7.23
2019-02-24T15:53:18.306Z,6.70
2019-02-24T15:55:50.995Z,7.90
2019-02-24T15:58:20.268Z,6.80
2019-02-24T16:00:49.314Z,6.63
2019-02-24T16:03:21.618Z,8.73
2019-02-24T16:05:52.380Z,7.80
2019-02-24T16:08:21.583Z,6.53
2019-02-24T16:10:51.969Z,7.90
2019-02-24T16:13:25.304Z,6.70
2019-02-24T16:15:54.650Z,7.17
2019-02-24T16:18:25.865Z,10.93
2019-02-24T16:20:54.949Z,8.07
2019-02-24T16:23:24.406Z,8.20
2019-02-24T16:25:54.016Z,7.97
2019-02-24T16:28:24.622Z,9.00
2019-02-24T16:31:03.478Z,8.10
2019-02-24T16:33:32.635Z,9.60
2019-02-24T16:36:02.096Z,9.33
2019-02-24T16:38:31.290Z,18.67
2019-02-24T16:41:00.423Z,20.80
2019-02-24T16:43:29.480Z,10.27
2019-02-24T16:45:58.494Z,8.50
2019-02-24T16:48:27.566Z,8.17
2019-02-24T16:50:56.702Z,7.83
2019-02-24T16:53:25.886Z,8.33
2019-02-24T16:55:55.067Z,10.70
2019-02-24T16:58:24.184Z,11.37
2019-02-24T17:00:53.316Z,12.10
2019-02-24T17:03:22.709Z,8.70
2019-02-24T17:05:51.839Z,8.90
2019-02-24T17:08:21.234Z,7.47
2019-02-24T17:10:50.312Z,8.87
2019-02-24T17:13:19.359Z,10.83
2019-02-24T17:15:49.306Z,10.43
2019-02-24T17:18:19.718Z,11.17
2019-02-24T17:20:49.084Z,10.20
2019-02-24T17:23:20.277Z,12.70
2019-02-24T17:25:49.388Z,9.63
2019-02-24T17:28:18.615Z,10.70
2019-02-24T17:30:47.829Z,12.00
2019-02-24T17:33:17.285Z,11.00
2019-02-24T17:35:47.845Z,7.43
2019-02-24T17:38:16.991Z,10.13
2019-02-24T17:40:46.112Z,9.30
2019-02-24T17:43:15.129Z,8.63
2019-02-24T17:45:51.290Z,6.73
2019-02-24T17:48:20.346Z,7.50
2019-02-24T17:50:51.629Z,6.63
2019-02-24T17:53:20.808Z,7.60
2019-02-24T17:55:55.030Z,8.20
2019-02-24T17:58:24.204Z,7.73
2019-02-24T18:00:59.847Z,7.07
2019-02-24T18:03:39.054Z,8.20
2019-02-24T18:06:02.359Z,6.97
2019-02-24T18:08:31.709Z,7.10
2019-02-24T18:11:00.782Z,6.67
2019-02-24T18:13:29.925Z,6.97
2019-02-24T18:15:59.243Z,6.87
2019-02-24T18:18:32.994Z,10.17
2019-02-24T18:21:02.174Z,8.83
2019-02-24T18:23:31.269Z,8.33
2019-02-24T18:26:00.364Z,8.20
2019-02-24T18:28:29.506Z,7.67
2019-02-24T18:30:58.779Z,9.57
2019-02-24T18:33:27.804Z,7.93
2019-02-24T18:35:57.030Z,9.50
2019-02-24T18:38:27.977Z,7.87
2019-02-24T18:40:56.811Z,8.07
2019-02-24T18:43:25.890Z,16.37
2019-02-24T18:45:55.404Z,10.30
2019-02-24T18:48:24.533Z,11.87
2019-02-24T18:50:53.744Z,8.57
2019-02-24T18:53:24.945Z,9.23
2019-02-24T18:55:54.065Z,13.20
2019-02-24T18:58:23.238Z,9.83
2019-02-24T19:00:52.392Z,13.17
2019-02-24T19:03:21.467Z,10.87
2019-02-24T19:05:50.686Z,10.77
2019-02-24T19:08:19.824Z,9.27
2019-02-24T19:10:48.975Z,8.93
2019-02-24T19:13:18.113Z,10.07
2019-02-24T19:15:47.217Z,9.53
2019-02-24T19:18:16.375Z,9.70
2019-02-24T19:20:45.641Z,12.80
2019-02-24T19:23:14.984Z,8.87
2019-02-24T19:25:44.184Z,10.70
2019-02-24T19:28:13.334Z,9.67
2019-02-24T19:30:43.478Z,9.63
2019-02-24T19:33:12.752Z,11.20
2019-02-24T19:35:41.882Z,11.13
2019-02-24T19:38:11.004Z,12.80
2019-02-24T19:40:40.289Z,11.47
2019-02-24T19:43:09.490Z,9.93
2019-02-24T19:45:38.626Z,10.90
2019-02-24T19:48:08.264Z,10.33
2019-02-24T19:50:37.581Z,12.73
2019-02-24T19:53:06.767Z,12.83
2019-02-24T19:55:36.011Z,11.40
2019-02-24T19:58:05.305Z,11.70
2019-02-24T20:00:34.503Z,12.97
2019-02-24T20:03:03.804Z,11.77
2019-02-24T20:05:33.158Z,11.83
2019-02-24T20:08:02.383Z,12.43
2019-02-24T20:10:31.692Z,10.70
2019-02-24T20:13:00.869Z,10.50
2019-02-24T20:15:30.018Z,13.17
2019-02-24T20:17:59.086Z,11.80
2019-02-24T20:20:28.178Z,15.23
2019-02-24T20:22:57.426Z,12.80
2019-02-24T20:25:26.622Z,10.40
2019-02-24T20:27:55.738Z,11.93
2019-02-24T20:30:27.320Z,11.97
2019-02-24T20:32:57.030Z,11.17
2019-02-24T20:35:27.102Z,16.10
2019-02-24T20:37:56.175Z,11.93
2019-02-24T20:40:25.269Z,12.03
2019-02-24T20:42:54.389Z,11.33
2019-02-24T20:45:30.370Z,10.43
2019-02-24T20:47:59.422Z,11.50
2019-02-24T20:50:28.647Z,11.40
2019-02-24T20:52:57.821Z,10.37
2019-02-24T20:55:26.967Z,11.57
2019-02-24T20:57:56.343Z,9.80
2019-02-24T21:00:31.138Z,9.80
2019-02-24T21:03:01.506Z,10.17
2019-02-24T21:05:31.355Z,11.80
2019-02-24T21:08:00.761Z,12.77
2019-02-24T21:10:32.422Z,16.13
2019-02-24T21:13:04.724Z,13.00
2019-02-24T21:15:40.188Z,8.97
2019-02-24T21:18:40.352Z,11.80
2019-02-24T21:21:29.636Z,11.87
2019-02-24T21:23:58.751Z,16.43
2019-02-24T21:26:27.944Z,16.37
2019-02-24T21:28:57.058Z,15.83
2019-02-24T21:31:26.235Z,16.90
2019-02-24T21:33:55.317Z,15.30
2019-02-24T21:36:24.518Z,14.20
2019-02-24T21:38:53.626Z,12.10
2019-02-24T21:41:22.774Z,11.93
2019-02-24T21:44:07.136Z,11.20
2019-02-24T21:46:36.274Z,12.10
2019-02-24T21:49:05.402Z,11.53
2019-02-24T21:51:38.119Z,13.43
2019-02-24T21:54:07.263Z,12.37
2019-02-24T21:56:36.360Z,24.97
2019-02-24T21:59:05.534Z,30.03
2019-02-24T22:01:34.579Z,25.40
2019-02-24T22:04:03.703Z,23.27
2019-02-24T22:06:32.840Z,18.47
2019-02-24T22:09:01.930Z,11.77
2019-02-24T22:11:40.109Z,12.07
2019-02-24T22:14:09.244Z,15.20
2019-02-24T22:16:38.339Z,21.23
2019-02-24T22:19:07.449Z,33.03
2019-02-24T22:21:36.678Z,54.63
2019-02-24T22:24:05.781Z,57.33
2019-02-24T22:26:34.869Z,63.57
2019-02-24T22:29:04.016Z,98.07
2019-02-24T22:31:33.105Z,50.63
2019-02-24T22:34:02.252Z,41.50
2019-02-24T22:36:34.281Z,47.23
2019-02-24T22:39:03.524Z,45.27
2019-02-24T22:41:32.649Z,46.33
2019-02-24T22:44:01.788Z,36.33
2019-02-24T22:46:30.914Z,28.63
2019-02-24T22:49:00.031Z,32.97
2019-02-24T22:51:29.141Z,35.00
2019-02-24T22:53:58.288Z,28.13
2019-02-24T22:56:27.397Z,46.13
2019-02-24T22:58:56.498Z,31.13
2019-02-24T23:01:29.739Z,19.73
2019-02-24T23:04:10.172Z,16.77
2019-02-24T23:06:39.307Z,29.93
2019-02-24T23:09:12.665Z,31.10
2019-02-24T23:11:41.766Z,31.77
2019-02-24T23:14:10.898Z,34.57
2019-02-24T23:16:40.021Z,40.97
2019-02-24T23:19:18.130Z,27.10
2019-02-24T23:21:47.245Z,15.60
2019-02-24T23:24:18.810Z,15.77
2019-02-24T23:26:47.958Z,23.27
2019-02-24T23:29:17.064Z,25.20
2019-02-24T23:31:46.558Z,26.40
2019-02-24T23:34:15.708Z,28.00
2019-02-24T23:36:44.829Z,22.60
2019-02-24T23:39:16.483Z,23.93
2019-02-24T23:41:46.057Z,19.43
2019-02-24T23:44:15.182Z,27.90
2019-02-24T23:46:47.161Z,43.57
2019-02-24T23:49:16.155Z,26.57
2019-02-24T23:51:45.245Z,21.73
2019-02-24T23:54:14.359Z,16.50
2019-02-24T23:56:55.683Z,16.50
2019-02-24T23:59:28.132Z,21.30
